createdAt,value
2023-04-30T00:01:36.194Z,11.50
2023-04-30T00:06:38.006Z,11.49
2023-04-30T00:11:39.939Z,11.49
2023-04-30T00:16:41.848Z,11.48
2023-04-30T00:21:43.596Z,11.40
2023-04-30T00:26:45.306Z,11.36
2023-04-30T00:31:47.142Z,11.40
2023-04-30T00:36:48.941Z,11.40
2023-04-30T00:41:51.007Z,11.40
2023-04-30T00:46:52.657Z,11.38
2023-04-30T00:51:54.527Z,11.34
2023-04-30T00:56:56.473Z,11.34
2023-04-30T01:01:58.136Z,11.32
2023-04-30T01:07:02.191Z,11.22
2023-04-30T01:12:28.846Z,11.12
2023-04-30T01:17:41.702Z,11.05
2023-04-30T01:23:02.620Z,11.05
2023-04-30T01:28:08.309Z,11.06
2023-04-30T01:33:10.404Z,11.07
2023-04-30T01:38:36.583Z,11.10
2023-04-30T01:43:57.423Z,11.10
2023-04-30T01:49:02.314Z,11.09
2023-04-30T01:54:14.300Z,11.10
2023-04-30T01:59:17.315Z,11.06
2023-04-30T02:04:18.976Z,10.98
2023-04-30T02:09:20.687Z,10.84
2023-04-30T02:14:22.661Z,10.68
2023-04-30T02:19:27.294Z,10.49
2023-04-30T02:24:28.932Z,10.30
2023-04-30T02:29:30.659Z,10.11
2023-04-30T02:34:32.375Z,9.91
2023-04-30T02:39:34.319Z,9.76
2023-04-30T02:44:36.096Z,9.60
2023-04-30T02:49:40.023Z,9.45
2023-04-30T02:54:42.847Z,9.32
2023-04-30T02:59:46.352Z,9.19
2023-04-30T03:04:48.712Z,9.08
2023-04-30T03:09:50.431Z,8.97
2023-04-30T03:14:52.283Z,8.94
2023-04-30T03:19:54.266Z,8.95
2023-04-30T03:24:56.244Z,8.94
2023-04-30T03:29:58.165Z,8.90
2023-04-30T03:35:00.119Z,8.89
2023-04-30T03:40:01.889Z,8.87
2023-04-30T03:45:04.267Z,8.82
2023-04-30T03:50:07.360Z,8.79
2023-04-30T03:55:10.378Z,8.84
2023-04-30T04:00:15.552Z,8.88
2023-04-30T04:05:19.243Z,8.90
2023-04-30T04:10:21.406Z,8.89
2023-04-30T04:15:23.464Z,8.91
2023-04-30T04:20:25.500Z,8.91
2023-04-30T04:25:27.444Z,8.93
2023-04-30T04:30:29.538Z,8.92
2023-04-30T04:35:31.489Z,8.88
2023-04-30T04:40:33.202Z,8.83
2023-04-30T04:45:35.906Z,8.84
2023-04-30T04:50:37.854Z,8.87
2023-04-30T04:55:39.738Z,8.89
2023-04-30T05:00:41.554Z,8.96
2023-04-30T05:05:43.435Z,9.05
2023-04-30T05:10:45.312Z,9.08
2023-04-30T05:15:49.488Z,9.08
2023-04-30T05:20:51.350Z,9.05
2023-04-30T05:25:53.297Z,9.04
2023-04-30T05:30:54.969Z,9.06
2023-04-30T05:35:56.667Z,9.07
2023-04-30T05:40:58.531Z,9.10
2023-04-30T05:46:00.444Z,9.15
2023-04-30T05:51:02.296Z,9.25
2023-04-30T05:56:03.991Z,9.40
2023-04-30T06:01:05.749Z,9.59
2023-04-30T06:06:07.755Z,9.79
2023-04-30T06:11:09.532Z,9.95
2023-04-30T06:16:11.615Z,10.10
2023-04-30T06:21:13.451Z,10.24
2023-04-30T06:26:15.373Z,10.44
2023-04-30T06:31:17.145Z,10.75
2023-04-30T06:36:19.659Z,11.16
2023-04-30T06:41:21.624Z,11.59
2023-04-30T06:46:23.589Z,12.09
2023-04-30T06:51:25.397Z,12.79
2023-04-30T06:56:27.113Z,13.63
2023-04-30T07:01:28.864Z,14.59
2023-04-30T07:06:30.673Z,15.84
2023-04-30T07:11:32.493Z,17.57
2023-04-30T07:16:34.364Z,19.21
2023-04-30T07:21:36.185Z,20.30
2023-04-30T07:26:38.040Z,20.90
2023-04-30T07:31:40.282Z,21.01
2023-04-30T07:36:42.199Z,20.71
2023-04-30T07:41:43.846Z,20.02
2023-04-30T07:46:45.576Z,19.79
2023-04-30T07:51:47.757Z,19.67
2023-04-30T07:56:49.380Z,20.04
2023-04-30T08:01:51.812Z,19.69
2023-04-30T08:06:53.573Z,19.93
2023-04-30T08:11:55.689Z,20.53
2023-04-30T08:16:59.467Z,20.74
2023-04-30T08:22:01.604Z,20.48
2023-04-30T08:27:03.754Z,19.81
2023-04-30T08:32:05.891Z,19.49
2023-04-30T08:37:07.922Z,19.27
2023-04-30T08:42:12.781Z,19.12
2023-04-30T08:47:14.971Z,18.64
2023-04-30T08:52:17.084Z,18.30
2023-04-30T08:57:19.073Z,18.51
2023-04-30T09:02:21.067Z,18.51
2023-04-30T09:07:25.396Z,18.44
2023-04-30T09:12:27.068Z,19.08
2023-04-30T09:17:29.965Z,19.97
2023-04-30T09:22:31.916Z,20.77
2023-04-30T09:27:33.946Z,20.72
2023-04-30T09:32:36.018Z,20.13
2023-04-30T09:37:38.741Z,20.03
2023-04-30T09:42:40.880Z,19.81
2023-04-30T09:47:42.810Z,19.25
2023-04-30T09:52:53.518Z,19.02
2023-04-30T09:57:55.630Z,18.60
2023-04-30T10:03:00.090Z,18.01
2023-04-30T10:08:01.963Z,17.86
2023-04-30T10:13:07.560Z,17.24
2023-04-30T10:18:17.517Z,16.83
2023-04-30T10:23:19.789Z,16.37
2023-04-30T10:28:22.112Z,16.24
2023-04-30T10:33:41.948Z,16.17
2023-04-30T10:38:45.908Z,16.34
2023-04-30T10:43:49.642Z,16.73
2023-04-30T10:48:55.719Z,16.71
2023-04-30T10:53:57.582Z,16.34
2023-04-30T10:59:02.387Z,16.31
2023-04-30T11:04:09.672Z,16.25
2023-04-30T11:09:11.683Z,16.04
2023-04-30T11:14:20.806Z,15.86
2023-04-30T11:19:23.138Z,15.85
2023-04-30T11:24:54.057Z,15.81
2023-04-30T11:29:57.611Z,15.75
2023-04-30T11:35:01.956Z,15.88
2023-04-30T11:40:10.866Z,15.87
2023-04-30T11:45:17.461Z,15.87
2023-04-30T11:50:27.414Z,15.84
2023-04-30T11:55:30.038Z,15.92
2023-04-30T12:00:32.033Z,15.94
2023-04-30T12:05:33.654Z,15.80
2023-04-30T12:10:36.495Z,15.65
2023-04-30T12:15:39.660Z,15.57
2023-04-30T12:20:42.093Z,15.58
2023-04-30T12:25:44.076Z,15.50
2023-04-30T12:30:47.317Z,15.51
2023-04-30T12:35:53.817Z,15.69
2023-04-30T12:40:56.572Z,15.93
2023-04-30T12:45:58.712Z,16.06
2023-04-30T12:51:02.954Z,16.08
2023-04-30T12:56:16.316Z,15.98
2023-04-30T13:01:23.966Z,15.84
2023-04-30T13:06:27.197Z,15.73
2023-04-30T13:11:28.981Z,15.69
2023-04-30T13:16:31.873Z,15.64
2023-04-30T13:21:34.005Z,15.50
2023-04-30T13:26:35.932Z,15.40
2023-04-30T13:31:37.721Z,15.30
2023-04-30T13:36:39.471Z,15.30
2023-04-30T13:41:41.136Z,15.30
2023-04-30T13:46:42.888Z,15.26
2023-04-30T13:51:44.710Z,15.24
2023-04-30T13:56:46.480Z,15.26
2023-04-30T14:01:48.138Z,15.34
2023-04-30T14:06:51.069Z,15.33
2023-04-30T14:11:52.785Z,15.32
2023-04-30T14:16:54.958Z,15.34
2023-04-30T14:21:56.793Z,15.34
2023-04-30T14:27:00.221Z,15.35
2023-04-30T14:32:02.205Z,15.35
2023-04-30T14:37:03.988Z,15.33
2023-04-30T14:42:05.830Z,15.26
2023-04-30T14:47:07.818Z,15.18
2023-04-30T14:52:09.488Z,15.16
2023-04-30T14:57:11.610Z,15.18
2023-04-30T15:02:13.445Z,15.17
2023-04-30T15:07:15.328Z,15.10
2023-04-30T15:12:17.016Z,15.08
2023-04-30T15:17:19.071Z,15.04
2023-04-30T15:22:22.538Z,14.97
2023-04-30T15:27:24.265Z,14.95
2023-04-30T15:32:26.093Z,14.89
2023-04-30T15:37:27.895Z,14.83
2023-04-30T15:42:29.568Z,14.79
2023-04-30T15:47:31.614Z,14.74
2023-04-30T15:52:33.229Z,14.66
2023-04-30T15:57:35.340Z,14.59
2023-04-30T16:02:37.237Z,14.56
2023-04-30T16:07:41.359Z,14.54
2023-04-30T16:12:44.737Z,14.48
2023-04-30T16:17:46.367Z,14.39
2023-04-30T16:22:49.657Z,14.29
2023-04-30T16:27:52.487Z,14.21
2023-04-30T16:32:54.352Z,14.16
2023-04-30T16:37:56.217Z,14.08
2023-04-30T16:42:59.649Z,13.97
2023-04-30T16:48:01.402Z,13.86
2023-04-30T16:53:03.239Z,13.76
2023-04-30T16:58:04.902Z,13.65
2023-04-30T17:03:06.782Z,13.55
2023-04-30T17:08:08.574Z,13.43
2023-04-30T17:13:10.289Z,13.32
2023-04-30T17:18:12.964Z,13.21
2023-04-30T17:23:14.776Z,13.08
2023-04-30T17:28:16.697Z,12.94
2023-04-30T17:33:18.474Z,12.80
2023-04-30T17:38:20.240Z,12.66
2023-04-30T17:43:22.024Z,12.51
2023-04-30T17:48:23.739Z,12.37
2023-04-30T17:53:25.758Z,12.21
2023-04-30T17:58:27.466Z,12.03
2023-04-30T18:03:29.657Z,11.85
2023-04-30T18:08:32.684Z,11.68
2023-04-30T18:13:34.430Z,11.51
2023-04-30T18:18:36.174Z,11.34
2023-04-30T18:23:37.919Z,11.15
2023-04-30T18:28:40.002Z,10.97
2023-04-30T18:33:42.098Z,10.79
2023-04-30T18:38:45.718Z,10.60
2023-04-30T18:43:47.613Z,10.37
2023-04-30T18:48:49.788Z,10.16
2023-04-30T18:53:51.602Z,9.95
2023-04-30T18:58:53.509Z,9.76
2023-04-30T19:03:55.421Z,9.56
2023-04-30T19:08:59.683Z,9.38
2023-04-30T19:14:02.186Z,9.20
2023-04-30T19:19:03.964Z,9.03
2023-04-30T19:24:05.972Z,8.87
2023-04-30T19:29:07.939Z,8.72
2023-04-30T19:34:09.688Z,8.60
2023-04-30T19:39:12.630Z,8.48
2023-04-30T19:44:17.584Z,8.36
2023-04-30T19:49:19.254Z,8.23
2023-04-30T19:54:21.062Z,8.10
2023-04-30T19:59:22.928Z,7.96
2023-04-30T20:04:26.385Z,7.84
2023-04-30T20:09:28.295Z,7.74
2023-04-30T20:14:31.029Z,7.64
2023-04-30T20:19:33.662Z,7.53
2023-04-30T20:24:35.378Z,7.42
2023-04-30T20:29:40.090Z,7.31
2023-04-30T20:34:41.773Z,7.20
2023-04-30T20:39:43.727Z,7.11
2023-04-30T20:44:46.596Z,7.01
2023-04-30T20:49:48.367Z,6.91
2023-04-30T20:54:50.719Z,6.81
2023-04-30T20:59:52.383Z,6.70
2023-04-30T21:04:54.066Z,6.58
2023-04-30T21:09:56.939Z,6.47
2023-04-30T21:15:05.839Z,6.33
2023-04-30T21:20:08.457Z,6.20
2023-04-30T21:25:11.990Z,6.06
2023-04-30T21:30:15.416Z,5.93
2023-04-30T21:35:18.103Z,5.81
2023-04-30T21:40:22.169Z,5.70
2023-04-30T21:45:37.165Z,5.60
2023-04-30T21:50:41.449Z,5.49
2023-04-30T21:55:43.285Z,5.36
2023-04-30T22:00:45.464Z,5.22
2023-04-30T22:05:47.532Z,5.10
2023-04-30T22:10:50.186Z,5.03
2023-04-30T22:15:52.849Z,5.00
2023-04-30T22:20:54.632Z,4.97
2023-04-30T22:25:56.430Z,4.89
2023-04-30T22:30:59.647Z,4.77
2023-04-30T22:36:01.990Z,4.64
2023-04-30T22:41:04.508Z,4.53
2023-04-30T22:46:06.315Z,4.47
2023-04-30T22:51:08.108Z,4.41
2023-04-30T22:56:10.576Z,4.34
2023-04-30T23:01:12.352Z,4.29
2023-04-30T23:06:15.628Z,4.30
2023-04-30T23:11:18.695Z,4.29
2023-04-30T23:16:20.443Z,4.27
2023-04-30T23:21:22.185Z,4.21
2023-04-30T23:26:24.446Z,4.16
2023-04-30T23:31:28.143Z,4.15
2023-04-30T23:36:29.869Z,4.15
2023-04-30T23:41:32.234Z,4.12
2023-04-30T23:46:36.304Z,4.08
2023-04-30T23:51:39.081Z,3.96
2023-04-30T23:56:40.872Z,3.82
